sensor_id;sensor_type;location;lat;lon;timestamp;pressure;altitude;pressure_sealevel;temperature;humidity
77431;BME280;66498;48.564;19.272;2023-04-28T00:01:28;98078.69;;;0.75;74.86
77431;BME280;66498;48.564;19.272;2023-04-28T00:03:53;98079.84;;;0.72;74.92
77431;BME280;66498;48.564;19.272;2023-04-28T00:06:20;98079.03;;;0.89;73.88
77431;BME280;66498;48.564;19.272;2023-04-28T00:08:46;98080.00;;;0.61;74.76
77431;BME280;66498;48.564;19.272;2023-04-28T00:11:11;98080.94;;;0.42;76.33
77431;BME280;66498;48.564;19.272;2023-04-28T00:13:37;98081.34;;;0.37;76.64
77431;BME280;66498;48.564;19.272;2023-04-28T00:16:03;98081.56;;;0.54;76.41
77431;BME280;66498;48.564;19.272;2023-04-28T00:18:29;98087.41;;;0.28;75.50
77431;BME280;66498;48.564;19.272;2023-04-28T00:20:55;98079.75;;;-0.01;75.96
77431;BME280;66498;48.564;19.272;2023-04-28T00:23:21;98087.38;;;0.01;76.06
77431;BME280;66498;48.564;19.272;2023-04-28T00:25:51;98084.44;;;0.13;76.57
77431;BME280;66498;48.564;19.272;2023-04-28T00:28:16;98089.97;;;0.28;75.45
77431;BME280;66498;48.564;19.272;2023-04-28T00:30:42;98087.13;;;-0.06;76.73
77431;BME280;66498;48.564;19.272;2023-04-28T00:33:07;98090.28;;;-0.32;77.43
77431;BME280;66498;48.564;19.272;2023-04-28T00:35:33;98093.25;;;-0.17;76.67
77431;BME280;66498;48.564;19.272;2023-04-28T00:37:58;98090.72;;;0.11;75.43
77431;BME280;66498;48.564;19.272;2023-04-28T00:40:34;98087.69;;;0.25;75.25
77431;BME280;66498;48.564;19.272;2023-04-28T00:43:01;98084.56;;;0.21;75.40
77431;BME280;66498;48.564;19.272;2023-04-28T00:45:26;98085.41;;;0.12;75.29
77431;BME280;66498;48.564;19.272;2023-04-28T00:47:52;98087.41;;;-0.19;76.53
77431;BME280;66498;48.564;19.272;2023-04-28T00:50:18;98086.72;;;-0.21;77.09
77431;BME280;66498;48.564;19.272;2023-04-28T00:52:44;98084.41;;;-0.14;75.91
77431;BME280;66498;48.564;19.272;2023-04-28T00:55:14;98086.97;;;-0.14;76.44
77431;BME280;66498;48.564;19.272;2023-04-28T00:57:40;98089.16;;;-0.10;76.26
77431;BME280;66498;48.564;19.272;2023-04-28T01:00:07;98090.84;;;0.09;75.40
77431;BME280;66498;48.564;19.272;2023-04-28T01:02:34;98096.66;;;-0.26;77.27
77431;BME280;66498;48.564;19.272;2023-04-28T01:05:00;98092.22;;;-0.43;78.98
77431;BME280;66498;48.564;19.272;2023-04-28T01:07:26;98095.22;;;-0.67;79.27
77431;BME280;66498;48.564;19.272;2023-04-28T01:09:52;98092.06;;;-0.42;78.86
77431;BME280;66498;48.564;19.272;2023-04-28T01:12:18;98101.47;;;-0.51;78.38
77431;BME280;66498;48.564;19.272;2023-04-28T01:14:43;98100.63;;;-0.51;79.43
77431;BME280;66498;48.564;19.272;2023-04-28T01:17:09;98101.56;;;-0.42;78.52
77431;BME280;66498;48.564;19.272;2023-04-28T01:19:35;98104.91;;;-0.13;77.55
77431;BME280;66498;48.564;19.272;2023-04-28T01:22:01;98104.31;;;0.03;76.04
77431;BME280;66498;48.564;19.272;2023-04-28T01:24:26;98102.53;;;-0.53;78.99
77431;BME280;66498;48.564;19.272;2023-04-28T01:26:52;98105.22;;;-0.55;79.56
77431;BME280;66498;48.564;19.272;2023-04-28T01:29:17;98099.16;;;-0.54;80.33
77431;BME280;66498;48.564;19.272;2023-04-28T01:31:43;98107.44;;;-0.50;80.38
77431;BME280;66498;48.564;19.272;2023-04-28T01:34:08;98104.94;;;-0.32;79.58
77431;BME280;66498;48.564;19.272;2023-04-28T01:36:33;98103.06;;;-0.50;80.45
77431;BME280;66498;48.564;19.272;2023-04-28T01:38:59;98107.97;;;-0.37;79.65
77431;BME280;66498;48.564;19.272;2023-04-28T01:41:25;98106.03;;;-0.35;79.60
77431;BME280;66498;48.564;19.272;2023-04-28T01:43:50;98107.41;;;-0.40;78.51
77431;BME280;66498;48.564;19.272;2023-04-28T01:46:16;98101.19;;;-0.57;78.51
77431;BME280;66498;48.564;19.272;2023-04-28T01:48:41;98098.63;;;-0.67;78.89
77431;BME280;66498;48.564;19.272;2023-04-28T01:51:07;98111.22;;;-0.64;79.17
77431;BME280;66498;48.564;19.272;2023-04-28T01:53:32;98111.34;;;-0.56;77.81
77431;BME280;66498;48.564;19.272;2023-04-28T01:55:58;98110.69;;;-0.58;77.76
77431;BME280;66498;48.564;19.272;2023-04-28T01:58:24;98110.25;;;-0.82;78.70
77431;BME280;66498;48.564;19.272;2023-04-28T02:00:52;98105.66;;;-0.88;79.15
77431;BME280;66498;48.564;19.272;2023-04-28T02:03:17;98105.94;;;-1.01;80.51
77431;BME280;66498;48.564;19.272;2023-04-28T02:05:42;98108.09;;;-0.77;78.76
77431;BME280;66498;48.564;19.272;2023-04-28T02:08:08;98107.28;;;-0.58;78.39
77431;BME280;66498;48.564;19.272;2023-04-28T02:10:33;98113.38;;;-0.79;79.09
77431;BME280;66498;48.564;19.272;2023-04-28T02:12:59;98120.44;;;-0.61;78.60
77431;BME280;66498;48.564;19.272;2023-04-28T02:15:24;98115.44;;;-0.73;78.97
77431;BME280;66498;48.564;19.272;2023-04-28T02:17:50;98117.72;;;-0.79;78.92
77431;BME280;66498;48.564;19.272;2023-04-28T02:20:15;98118.16;;;-0.84;79.60
77431;BME280;66498;48.564;19.272;2023-04-28T02:22:41;98116.50;;;-1.04;80.91
77431;BME280;66498;48.564;19.272;2023-04-28T02:25:07;98115.44;;;-1.02;81.14
77431;BME280;66498;48.564;19.272;2023-04-28T02:27:36;98115.69;;;-1.05;81.21
77431;BME280;66498;48.564;19.272;2023-04-28T02:30:06;98123.56;;;-0.77;79.76
77431;BME280;66498;48.564;19.272;2023-04-28T02:32:32;98123.28;;;-0.93;80.15
77431;BME280;66498;48.564;19.272;2023-04-28T02:34:57;98121.91;;;-1.07;80.79
77431;BME280;66498;48.564;19.272;2023-04-28T02:37:23;98120.97;;;-1.06;80.03
77431;BME280;66498;48.564;19.272;2023-04-28T02:39:48;98126.28;;;-0.98;80.83
77431;BME280;66498;48.564;19.272;2023-04-28T02:42:14;98130.06;;;-0.92;80.24
77431;BME280;66498;48.564;19.272;2023-04-28T02:44:40;98124.13;;;-0.83;79.69
77431;BME280;66498;48.564;19.272;2023-04-28T02:47:05;98128.88;;;-0.40;77.58
77431;BME280;66498;48.564;19.272;2023-04-28T02:49:31;98130.22;;;-0.36;76.05
77431;BME280;66498;48.564;19.272;2023-04-28T02:51:56;98130.91;;;-0.43;76.54
77431;BME280;66498;48.564;19.272;2023-04-28T02:54:22;98136.47;;;-0.77;77.68
77431;BME280;66498;48.564;19.272;2023-04-28T02:56:54;98129.13;;;-0.82;77.62
77431;BME280;66498;48.564;19.272;2023-04-28T02:59:20;98129.66;;;-0.98;78.25
77431;BME280;66498;48.564;19.272;2023-04-28T03:01:46;98126.84;;;-0.85;77.36
77431;BME280;66498;48.564;19.272;2023-04-28T03:04:12;98129.66;;;-0.78;76.83
77431;BME280;66498;48.564;19.272;2023-04-28T03:06:38;98127.34;;;-1.10;78.07
77431;BME280;66498;48.564;19.272;2023-04-28T03:09:04;98135.22;;;-0.92;77.71
77431;BME280;66498;48.564;19.272;2023-04-28T03:11:29;98134.56;;;-0.85;78.03
77431;BME280;66498;48.564;19.272;2023-04-28T03:13:55;98129.94;;;-1.01;79.13
77431;BME280;66498;48.564;19.272;2023-04-28T03:16:20;98133.56;;;-1.03;79.54
77431;BME280;66498;48.564;19.272;2023-04-28T03:18:46;98133.19;;;-1.08;79.07
77431;BME280;66498;48.564;19.272;2023-04-28T03:21:14;98131.00;;;-1.03;79.26
77431;BME280;66498;48.564;19.272;2023-04-28T03:23:39;98141.53;;;-1.26;81.16
77431;BME280;66498;48.564;19.272;2023-04-28T03:26:06;98135.53;;;-1.36;81.49
77431;BME280;66498;48.564;19.272;2023-04-28T03:28:32;98142.13;;;-1.53;81.48
77431;BME280;66498;48.564;19.272;2023-04-28T03:30:57;98142.16;;;-1.43;81.00
77431;BME280;66498;48.564;19.272;2023-04-28T03:33:25;98149.09;;;-1.34;80.53
77431;BME280;66498;48.564;19.272;2023-04-28T03:35:51;98147.88;;;-1.30;80.62
77431;BME280;66498;48.564;19.272;2023-04-28T03:38:17;98146.84;;;-1.17;79.91
77431;BME280;66498;48.564;19.272;2023-04-28T03:40:43;98149.00;;;-1.13;79.59
77431;BME280;66498;48.564;19.272;2023-04-28T03:43:09;98148.53;;;-0.78;76.95
77431;BME280;66498;48.564;19.272;2023-04-28T03:45:35;98150.56;;;-0.91;77.02
77431;BME280;66498;48.564;19.272;2023-04-28T03:48:01;98146.69;;;-1.26;78.67
77431;BME280;66498;48.564;19.272;2023-04-28T03:50:26;98152.63;;;-0.85;76.81
77431;BME280;66498;48.564;19.272;2023-04-28T03:52:52;98141.19;;;-0.92;76.89
77431;BME280;66498;48.564;19.272;2023-04-28T03:55:17;98148.19;;;-1.23;78.82
77431;BME280;66498;48.564;19.272;2023-04-28T03:57:43;98139.81;;;-1.15;79.27
77431;BME280;66498;48.564;19.272;2023-04-28T04:00:09;98149.63;;;-1.40;80.63
77431;BME280;66498;48.564;19.272;2023-04-28T04:02:34;98144.13;;;-1.26;80.90
77431;BME280;66498;48.564;19.272;2023-04-28T04:05:01;98149.53;;;-1.19;80.57
77431;BME280;66498;48.564;19.272;2023-04-28T04:07:26;98149.00;;;-1.13;80.71
77431;BME280;66498;48.564;19.272;2023-04-28T04:09:52;98148.44;;;-1.26;81.24
77431;BME280;66498;48.564;19.272;2023-04-28T04:12:17;98149.00;;;-1.13;80.98
77431;BME280;66498;48.564;19.272;2023-04-28T04:14:42;98141.69;;;-1.17;80.75
77431;BME280;66498;48.564;19.272;2023-04-28T04:17:08;98142.75;;;-1.20;81.00
77431;BME280;66498;48.564;19.272;2023-04-28T04:19:33;98145.50;;;-1.12;81.26
77431;BME280;66498;48.564;19.272;2023-04-28T04:21:59;98144.25;;;-1.27;82.42
77431;BME280;66498;48.564;19.272;2023-04-28T04:24:25;98136.59;;;-0.98;81.41
77431;BME280;66498;48.564;19.272;2023-04-28T04:26:50;98139.56;;;-0.83;81.47
77431;BME280;66498;48.564;19.272;2023-04-28T04:29:16;98137.13;;;-0.94;81.38
77431;BME280;66498;48.564;19.272;2023-04-28T04:31:41;98134.41;;;-0.83;80.77
77431;BME280;66498;48.564;19.272;2023-04-28T04:34:09;98139.03;;;-0.48;80.00
77431;BME280;66498;48.564;19.272;2023-04-28T04:36:35;98142.03;;;-0.33;79.69
77431;BME280;66498;48.564;19.272;2023-04-28T04:39:00;98140.00;;;-0.39;79.52
77431;BME280;66498;48.564;19.272;2023-04-28T04:41:26;98143.38;;;-0.19;78.58
77431;BME280;66498;48.564;19.272;2023-04-28T04:43:51;98153.16;;;-0.42;80.00
77431;BME280;66498;48.564;19.272;2023-04-28T04:46:17;98149.50;;;-0.30;79.86
77431;BME280;66498;48.564;19.272;2023-04-28T04:48:42;98148.06;;;0.14;77.89
77431;BME280;66498;48.564;19.272;2023-04-28T04:51:08;98147.41;;;0.40;76.60
77431;BME280;66498;48.564;19.272;2023-04-28T04:53:33;98143.25;;;0.29;77.22
77431;BME280;66498;48.564;19.272;2023-04-28T04:55:59;98150.09;;;0.20;77.14
77431;BME280;66498;48.564;19.272;2023-04-28T04:58:25;98139.84;;;0.29;77.13
77431;BME280;66498;48.564;19.272;2023-04-28T05:00:51;98142.34;;;0.11;77.98
77431;BME280;66498;48.564;19.272;2023-04-28T05:03:16;98140.41;;;0.22;77.72
77431;BME280;66498;48.564;19.272;2023-04-28T05:05:42;98149.81;;;0.14;78.24
77431;BME280;66498;48.564;19.272;2023-04-28T05:08:10;98150.63;;;0.14;77.39
77431;BME280;66498;48.564;19.272;2023-04-28T05:10:36;98148.66;;;0.36;76.61
77431;BME280;66498;48.564;19.272;2023-04-28T05:13:01;98150.69;;;0.42;76.64
77431;BME280;66498;48.564;19.272;2023-04-28T05:15:27;98151.25;;;0.36;76.65
77431;BME280;66498;48.564;19.272;2023-04-28T05:17:53;98157.44;;;0.53;76.50
77431;BME280;66498;48.564;19.272;2023-04-28T05:20:18;98159.41;;;0.68;76.82
77431;BME280;66498;48.564;19.272;2023-04-28T05:22:44;98156.38;;;0.73;77.05
77431;BME280;66498;48.564;19.272;2023-04-28T05:25:10;98159.69;;;0.93;75.78
77431;BME280;66498;48.564;19.272;2023-04-28T05:27:36;98160.56;;;1.02;76.28
77431;BME280;66498;48.564;19.272;2023-04-28T05:30:04;98168.25;;;1.57;73.87
77431;BME280;66498;48.564;19.272;2023-04-28T05:32:30;98157.69;;;2.46;71.75
77431;BME280;66498;48.564;19.272;2023-04-28T05:34:56;98163.25;;;3.02;70.47
77431;BME280;66498;48.564;19.272;2023-04-28T05:37:22;98159.84;;;3.01;70.10
77431;BME280;66498;48.564;19.272;2023-04-28T05:39:47;98158.09;;;3.18;67.35
77431;BME280;66498;48.564;19.272;2023-04-28T05:42:13;98160.25;;;3.31;67.64
77431;BME280;66498;48.564;19.272;2023-04-28T05:44:38;98150.22;;;3.61;64.89
77431;BME280;66498;48.564;19.272;2023-04-28T05:47:04;98151.59;;;3.06;67.43
77431;BME280;66498;48.564;19.272;2023-04-28T05:49:30;98157.81;;;3.29;66.39
77431;BME280;66498;48.564;19.272;2023-04-28T05:51:55;98162.06;;;3.63;66.55
77431;BME280;66498;48.564;19.272;2023-04-28T05:54:21;98148.56;;;4.00;64.25
77431;BME280;66498;48.564;19.272;2023-04-28T05:56:46;98144.19;;;4.09;63.62
77431;BME280;66498;48.564;19.272;2023-04-28T05:59:12;98151.84;;;4.58;62.93
77431;BME280;66498;48.564;19.272;2023-04-28T06:01:37;98147.38;;;4.27;64.31
77431;BME280;66498;48.564;19.272;2023-04-28T06:04:03;98145.78;;;4.26;64.90
77431;BME280;66498;48.564;19.272;2023-04-28T06:06:29;98147.34;;;4.91;62.92
77431;BME280;66498;48.564;19.272;2023-04-28T06:08:54;98149.56;;;5.03;62.58
77431;BME280;66498;48.564;19.272;2023-04-28T06:11:21;98151.00;;;5.05;63.74
77431;BME280;66498;48.564;19.272;2023-04-28T06:13:50;98153.59;;;5.59;62.34
77431;BME280;66498;48.564;19.272;2023-04-28T06:16:16;98153.09;;;5.41;62.00
77431;BME280;66498;48.564;19.272;2023-04-28T06:18:43;98154.47;;;5.52;62.46
77431;BME280;66498;48.564;19.272;2023-04-28T06:21:08;98148.34;;;5.67;61.45
77431;BME280;66498;48.564;19.272;2023-04-28T06:23:34;98144.28;;;5.88;59.89
77431;BME280;66498;48.564;19.272;2023-04-28T06:26:00;98146.47;;;5.76;59.38
77431;BME280;66498;48.564;19.272;2023-04-28T06:28:28;98145.78;;;6.05;56.72
77431;BME280;66498;48.564;19.272;2023-04-28T06:30:54;98138.50;;;6.90;53.17
77431;BME280;66498;48.564;19.272;2023-04-28T06:33:19;98150.16;;;7.08;53.34
77431;BME280;66498;48.564;19.272;2023-04-28T06:35:45;98143.72;;;6.45;54.63
77431;BME280;66498;48.564;19.272;2023-04-28T06:38:11;98145.06;;;6.26;54.58
77431;BME280;66498;48.564;19.272;2023-04-28T06:40:37;98136.56;;;6.32;55.92
77431;BME280;66498;48.564;19.272;2023-04-28T06:43:05;98135.44;;;6.71;56.17
77431;BME280;66498;48.564;19.272;2023-04-28T06:45:31;98138.81;;;7.59;54.80
77431;BME280;66498;48.564;19.272;2023-04-28T06:47:56;98136.00;;;7.03;54.87
77431;BME280;66498;48.564;19.272;2023-04-28T06:50:22;98128.88;;;7.48;52.90
77431;BME280;66498;48.564;19.272;2023-04-28T06:52:48;98130.06;;;8.23;51.38
77431;BME280;66498;48.564;19.272;2023-04-28T06:55:15;98122.88;;;8.60;51.42
77431;BME280;66498;48.564;19.272;2023-04-28T06:57:41;98121.00;;;7.69;53.25
77431;BME280;66498;48.564;19.272;2023-04-28T07:00:08;98119.00;;;8.56;50.24
77431;BME280;66498;48.564;19.272;2023-04-28T07:02:34;98111.69;;;8.44;52.05
77431;BME280;66498;48.564;19.272;2023-04-28T07:05:01;98109.72;;;8.94;50.57
77431;BME280;66498;48.564;19.272;2023-04-28T07:07:28;98111.72;;;8.92;51.05
77431;BME280;66498;48.564;19.272;2023-04-28T07:09:54;98113.97;;;8.54;52.64
77431;BME280;66498;48.564;19.272;2023-04-28T07:12:20;98115.16;;;8.99;52.58
77431;BME280;66498;48.564;19.272;2023-04-28T07:14:46;98116.47;;;9.37;51.62
77431;BME280;66498;48.564;19.272;2023-04-28T07:17:12;98111.44;;;9.42;51.78
77431;BME280;66498;48.564;19.272;2023-04-28T07:19:38;98107.53;;;9.05;52.72
77431;BME280;66498;48.564;19.272;2023-04-28T07:22:04;98102.56;;;9.36;50.18
77431;BME280;66498;48.564;19.272;2023-04-28T07:24:29;98094.94;;;9.55;49.79
77431;BME280;66498;48.564;19.272;2023-04-28T07:26:55;98096.34;;;9.90;50.03
77431;BME280;66498;48.564;19.272;2023-04-28T07:29:21;98082.63;;;9.75;48.90
77431;BME280;66498;48.564;19.272;2023-04-28T07:31:47;98089.22;;;10.17;49.27
77431;BME280;66498;48.564;19.272;2023-04-28T07:34:13;98080.91;;;10.54;48.96
77431;BME280;66498;48.564;19.272;2023-04-28T07:36:39;98077.53;;;10.33;49.21
77431;BME280;66498;48.564;19.272;2023-04-28T07:39:06;98075.03;;;10.58;50.59
77431;BME280;66498;48.564;19.272;2023-04-28T07:41:36;98077.00;;;10.70;44.92
77431;BME280;66498;48.564;19.272;2023-04-28T07:44:03;98077.75;;;11.22;43.69
77431;BME280;66498;48.564;19.272;2023-04-28T07:46:29;98074.31;;;11.21;46.40
77431;BME280;66498;48.564;19.272;2023-04-28T07:48:55;98065.28;;;11.67;45.52
77431;BME280;66498;48.564;19.272;2023-04-28T07:51:21;98063.19;;;11.76;44.73
77431;BME280;66498;48.564;19.272;2023-04-28T07:53:46;98059.78;;;11.19;45.45
77431;BME280;66498;48.564;19.272;2023-04-28T07:56:12;98066.63;;;11.20;45.28
77431;BME280;66498;48.564;19.272;2023-04-28T07:58:37;98061.84;;;11.10;45.28
77431;BME280;66498;48.564;19.272;2023-04-28T08:01:03;98061.91;;;10.58;47.15
77431;BME280;66498;48.564;19.272;2023-04-28T08:03:28;98057.19;;;10.74;48.87
77431;BME280;66498;48.564;19.272;2023-04-28T08:05:54;98062.66;;;10.65;48.48
77431;BME280;66498;48.564;19.272;2023-04-28T08:08:20;98068.34;;;11.07;47.44
77431;BME280;66498;48.564;19.272;2023-04-28T08:10:45;98057.88;;;11.01;46.86
77431;BME280;66498;48.564;19.272;2023-04-28T08:13:11;98046.97;;;11.29;46.33
77431;BME280;66498;48.564;19.272;2023-04-28T08:15:37;98044.94;;;11.56;46.51
77431;BME280;66498;48.564;19.272;2023-04-28T08:18:02;98039.88;;;11.29;47.42
77431;BME280;66498;48.564;19.272;2023-04-28T08:20:28;98034.81;;;11.34;46.84
77431;BME280;66498;48.564;19.272;2023-04-28T08:22:54;98032.97;;;11.35;45.89
77431;BME280;66498;48.564;19.272;2023-04-28T08:25:20;98029.38;;;11.79;45.03
77431;BME280;66498;48.564;19.272;2023-04-28T08:27:45;98020.66;;;12.41;43.75
77431;BME280;66498;48.564;19.272;2023-04-28T08:30:11;98017.50;;;12.32;46.76
77431;BME280;66498;48.564;19.272;2023-04-28T08:32:36;98016.31;;;12.46;45.21
77431;BME280;66498;48.564;19.272;2023-04-28T08:35:02;98014.16;;;12.25;45.13
77431;BME280;66498;48.564;19.272;2023-04-28T08:37:29;98013.75;;;12.58;43.96
77431;BME280;66498;48.564;19.272;2023-04-28T08:39:55;97994.34;;;12.04;45.68
77431;BME280;66498;48.564;19.272;2023-04-28T08:42:30;98000.69;;;12.51;43.58
77431;BME280;66498;48.564;19.272;2023-04-28T08:44:57;98003.41;;;12.26;42.75
77431;BME280;66498;48.564;19.272;2023-04-28T08:47:32;98006.75;;;12.15;43.87
77431;BME280;66498;48.564;19.272;2023-04-28T08:50:05;98003.41;;;12.45;42.45
77431;BME280;66498;48.564;19.272;2023-04-28T08:52:31;98006.06;;;12.87;42.98
77431;BME280;66498;48.564;19.272;2023-04-28T08:55:03;97997.28;;;12.93;42.22
77431;BME280;66498;48.564;19.272;2023-04-28T08:57:47;97998.34;;;12.73;42.18
77431;BME280;66498;48.564;19.272;2023-04-28T09:00:14;97994.41;;;12.16;44.49
77431;BME280;66498;48.564;19.272;2023-04-28T09:02:39;97993.75;;;12.02;42.95
77431;BME280;66498;48.564;19.272;2023-04-28T09:05:09;97997.84;;;12.35;41.25
77431;BME280;66498;48.564;19.272;2023-04-28T09:07:35;97989.53;;;12.68;40.22
77431;BME280;66498;48.564;19.272;2023-04-28T09:12:42;97996.16;;;12.40;39.50
77431;BME280;66498;48.564;19.272;2023-04-28T09:15:08;97992.47;;;12.60;40.43
77431;BME280;66498;48.564;19.272;2023-04-28T09:17:50;97994.13;;;12.72;40.88
77431;BME280;66498;48.564;19.272;2023-04-28T09:20:23;97992.94;;;13.29;38.27
77431;BME280;66498;48.564;19.272;2023-04-28T09:22:49;97979.41;;;13.37;40.61
77431;BME280;66498;48.564;19.272;2023-04-28T09:25:16;97976.44;;;12.91;39.11
77431;BME280;66498;48.564;19.272;2023-04-28T09:27:42;97987.19;;;13.79;38.62
77431;BME280;66498;48.564;19.272;2023-04-28T09:30:08;97976.09;;;12.88;39.93
77431;BME280;66498;48.564;19.272;2023-04-28T09:32:34;97974.69;;;13.27;37.62
77431;BME280;66498;48.564;19.272;2023-04-28T09:35:00;97969.66;;;13.61;37.02
77431;BME280;66498;48.564;19.272;2023-04-28T09:37:27;97970.34;;;13.44;38.14
77431;BME280;66498;48.564;19.272;2023-04-28T09:39:57;97969.22;;;13.52;37.46
77431;BME280;66498;48.564;19.272;2023-04-28T09:47:36;97959.69;;;13.63;39.73
77431;BME280;66498;48.564;19.272;2023-04-28T09:50:07;97950.97;;;14.26;38.13
77431;BME280;66498;48.564;19.272;2023-04-28T09:52:34;97953.84;;;13.72;39.10
77431;BME280;66498;48.564;19.272;2023-04-28T09:55:05;97943.97;;;13.68;37.38
77431;BME280;66498;48.564;19.272;2023-04-28T09:57:32;97937.56;;;14.16;37.23
77431;BME280;66498;48.564;19.272;2023-04-28T10:00:02;97934.03;;;14.10;37.14
77431;BME280;66498;48.564;19.272;2023-04-28T10:02:30;97916.00;;;13.67;39.21
77431;BME280;66498;48.564;19.272;2023-04-28T10:04:57;97922.41;;;13.71;39.03
77431;BME280;66498;48.564;19.272;2023-04-28T10:07:22;97918.94;;;13.94;38.67
77431;BME280;66498;48.564;19.272;2023-04-28T10:09:49;97915.03;;;13.96;38.44
77431;BME280;66498;48.564;19.272;2023-04-28T10:12:15;97921.44;;;14.01;39.89
77431;BME280;66498;48.564;19.272;2023-04-28T10:14:41;97920.00;;;13.69;39.00
77431;BME280;66498;48.564;19.272;2023-04-28T10:17:07;97919.56;;;14.13;38.15
77431;BME280;66498;48.564;19.272;2023-04-28T10:19:33;97914.88;;;14.89;35.73
77431;BME280;66498;48.564;19.272;2023-04-28T10:27:30;97896.09;;;14.57;36.97
77431;BME280;66498;48.564;19.272;2023-04-28T10:30:13;97886.06;;;15.60;34.66
77431;BME280;66498;48.564;19.272;2023-04-28T10:32:39;97886.81;;;15.77;36.43
77431;BME280;66498;48.564;19.272;2023-04-28T10:38:05;97877.78;;;15.18;36.99
77431;BME280;66498;48.564;19.272;2023-04-28T10:40:50;97879.16;;;14.86;36.86
77431;BME280;66498;48.564;19.272;2023-04-28T10:56:26;97841.63;;;15.23;37.81
77431;BME280;66498;48.564;19.272;2023-04-28T10:58:55;97841.28;;;15.58;36.57
77431;BME280;66498;48.564;19.272;2023-04-28T11:03:50;97838.47;;;15.65;36.45
77431;BME280;66498;48.564;19.272;2023-04-28T11:06:41;97831.19;;;16.21;35.22
77431;BME280;66498;48.564;19.272;2023-04-28T11:14:31;97820.25;;;17.09;35.98
77431;BME280;66498;48.564;19.272;2023-04-28T11:16:59;97832.47;;;17.68;30.81
77431;BME280;66498;48.564;19.272;2023-04-28T11:19:26;97821.44;;;17.34;34.27
77431;BME280;66498;48.564;19.272;2023-04-28T11:21:55;97823.03;;;17.35;34.54
77431;BME280;66498;48.564;19.272;2023-04-28T11:24:22;97826.28;;;16.67;35.71
77431;BME280;66498;48.564;19.272;2023-04-28T11:26:51;97813.22;;;17.30;31.82
77431;BME280;66498;48.564;19.272;2023-04-28T11:29:30;97814.72;;;17.73;31.68
77431;BME280;66498;48.564;19.272;2023-04-28T11:31:55;97806.31;;;17.29;33.63
77431;BME280;66498;48.564;19.272;2023-04-28T11:34:21;97817.03;;;17.02;33.30
77431;BME280;66498;48.564;19.272;2023-04-28T11:36:48;97813.22;;;16.55;33.49
77431;BME280;66498;48.564;19.272;2023-04-28T11:39:13;97816.69;;;16.88;33.72
77431;BME280;66498;48.564;19.272;2023-04-28T11:41:41;97807.31;;;16.75;32.44
77431;BME280;66498;48.564;19.272;2023-04-28T11:44:10;97806.94;;;17.04;33.61
77431;BME280;66498;48.564;19.272;2023-04-28T11:46:46;97816.09;;;17.23;35.45
77431;BME280;66498;48.564;19.272;2023-04-28T11:49:15;97826.19;;;16.57;37.04
77431;BME280;66498;48.564;19.272;2023-04-28T11:51:41;97819.91;;;17.00;33.19
77431;BME280;66498;48.564;19.272;2023-04-28T11:54:09;97821.38;;;16.49;33.96
77431;BME280;66498;48.564;19.272;2023-04-28T11:56:40;97815.16;;;17.02;34.32
77431;BME280;66498;48.564;19.272;2023-04-28T11:59:10;97810.16;;;17.11;35.80
77431;BME280;66498;48.564;19.272;2023-04-28T12:04:12;97800.28;;;16.05;38.22
77431;BME280;66498;48.564;19.272;2023-04-28T12:06:39;97799.50;;;16.04;37.99
77431;BME280;66498;48.564;19.272;2023-04-28T12:09:18;97801.91;;;15.62;35.94
77431;BME280;66498;48.564;19.272;2023-04-28T12:11:56;97801.56;;;16.24;38.26
77431;BME280;66498;48.564;19.272;2023-04-28T12:14:23;97793.84;;;16.87;36.89
77431;BME280;66498;48.564;19.272;2023-04-28T12:16:49;97796.22;;;16.51;34.98
77431;BME280;66498;48.564;19.272;2023-04-28T12:19:16;97792.94;;;16.71;35.40
77431;BME280;66498;48.564;19.272;2023-04-28T12:21:42;97795.16;;;16.52;33.16
77431;BME280;66498;48.564;19.272;2023-04-28T12:24:14;97790.50;;;16.32;33.49
77431;BME280;66498;48.564;19.272;2023-04-28T12:26:40;97773.63;;;16.44;34.13
77431;BME280;66498;48.564;19.272;2023-04-28T12:29:07;97776.19;;;16.06;35.54
77431;BME280;66498;48.564;19.272;2023-04-28T12:31:50;97772.16;;;16.26;35.80
77431;BME280;66498;48.564;19.272;2023-04-28T12:34:18;97765.44;;;16.45;35.93
77431;BME280;66498;48.564;19.272;2023-04-28T12:36:44;97754.78;;;15.59;41.36
77431;BME280;66498;48.564;19.272;2023-04-28T12:39:14;97752.91;;;15.32;39.82
77431;BME280;66498;48.564;19.272;2023-04-28T12:41:44;97745.44;;;15.73;35.85
77431;BME280;66498;48.564;19.272;2023-04-28T12:44:10;97733.50;;;15.98;37.01
77431;BME280;66498;48.564;19.272;2023-04-28T12:46:36;97725.16;;;16.11;35.23
77431;BME280;66498;48.564;19.272;2023-04-28T12:49:01;97720.47;;;16.23;37.55
77431;BME280;66498;48.564;19.272;2023-04-28T12:51:27;97722.22;;;15.58;39.19
77431;BME280;66498;48.564;19.272;2023-04-28T12:53:54;97721.72;;;15.61;36.66
77431;BME280;66498;48.564;19.272;2023-04-28T12:56:19;97720.03;;;15.50;37.65
77431;BME280;66498;48.564;19.272;2023-04-28T12:58:45;97715.63;;;16.10;37.33
77431;BME280;66498;48.564;19.272;2023-04-28T13:01:10;97722.66;;;16.31;34.42
77431;BME280;66498;48.564;19.272;2023-04-28T13:03:36;97723.91;;;16.56;34.82
77431;BME280;66498;48.564;19.272;2023-04-28T13:06:03;97720.03;;;16.31;33.89
77431;BME280;66498;48.564;19.272;2023-04-28T13:08:30;97718.28;;;16.10;36.42
77431;BME280;66498;48.564;19.272;2023-04-28T13:10:58;97714.66;;;16.21;34.80
77431;BME280;66498;48.564;19.272;2023-04-28T13:13:23;97711.66;;;16.50;35.68
77431;BME280;66498;48.564;19.272;2023-04-28T13:15:49;97706.47;;;16.65;33.37
77431;BME280;66498;48.564;19.272;2023-04-28T13:18:15;97705.13;;;16.25;35.67
77431;BME280;66498;48.564;19.272;2023-04-28T13:20:41;97709.22;;;16.38;35.60
77431;BME280;66498;48.564;19.272;2023-04-28T13:23:08;97711.78;;;17.13;33.76
77431;BME280;66498;48.564;19.272;2023-04-28T13:25:34;97711.28;;;16.73;33.07
77431;BME280;66498;48.564;19.272;2023-04-28T13:27:59;97712.06;;;16.74;34.63
77431;BME280;66498;48.564;19.272;2023-04-28T13:30:25;97718.75;;;16.76;33.48